sensor_id;sensor_type;location;lat;lon;timestamp;P1;durP1;ratioP1;P2;durP2;ratioP2
55136;SDS011;41032;47.818;-3.732;2023-03-14T00:01:20;221.65;;;154.45;;
55136;SDS011;41032;47.818;-3.732;2023-03-14T00:03:49;232.20;;;155.98;;
55136;SDS011;41032;47.818;-3.732;2023-03-14T00:06:18;225.50;;;158.13;;
55136;SDS011;41032;47.818;-3.732;2023-03-14T00:08:46;223.68;;;159.00;;
55136;SDS011;41032;47.818;-3.732;2023-03-14T00:11:16;228.40;;;157.18;;
55136;SDS011;41032;47.818;-3.732;2023-03-14T00:13:50;235.20;;;163.35;;
55136;SDS011;41032;47.818;-3.732;2023-03-14T00:16:19;221.63;;;148.65;;
55136;SDS011;41032;47.818;-3.732;2023-03-14T00:18:47;219.52;;;150.65;;
55136;SDS011;41032;47.818;-3.732;2023-03-14T00:21:17;216.68;;;150.15;;
55136;SDS011;41032;47.818;-3.732;2023-03-14T00:23:45;217.35;;;146.48;;
55136;SDS011;41032;47.818;-3.732;2023-03-14T00:26:15;201.70;;;138.27;;
55136;SDS011;41032;47.818;-3.732;2023-03-14T00:28:45;204.52;;;142.52;;
55136;SDS011;41032;47.818;-3.732;2023-03-14T00:31:15;185.55;;;128.20;;
55136;SDS011;41032;47.818;-3.732;2023-03-14T00:33:44;190.55;;;131.13;;
55136;SDS011;41032;47.818;-3.732;2023-03-14T00:36:15;198.63;;;133.70;;
55136;SDS011;41032;47.818;-3.732;2023-03-14T00:38:44;196.27;;;134.65;;
55136;SDS011;41032;47.818;-3.732;2023-03-14T00:41:14;196.57;;;133.27;;
55136;SDS011;41032;47.818;-3.732;2023-03-14T00:43:48;181.57;;;124.85;;
55136;SDS011;41032;47.818;-3.732;2023-03-14T00:46:17;198.07;;;131.45;;
55136;SDS011;41032;47.818;-3.732;2023-03-14T00:48:46;190.43;;;126.55;;
55136;SDS011;41032;47.818;-3.732;2023-03-14T00:51:16;171.98;;;118.10;;
55136;SDS011;41032;47.818;-3.732;2023-03-14T00:53:44;170.13;;;115.47;;
55136;SDS011;41032;47.818;-3.732;2023-03-14T00:56:14;172.43;;;119.63;;
55136;SDS011;41032;47.818;-3.732;2023-03-14T00:58:41;181.23;;;122.05;;
55136;SDS011;41032;47.818;-3.732;2023-03-14T01:01:19;179.93;;;120.03;;
55136;SDS011;41032;47.818;-3.732;2023-03-14T01:03:50;176.95;;;120.35;;
55136;SDS011;41032;47.818;-3.732;2023-03-14T01:06:20;160.63;;;110.43;;
55136;SDS011;41032;47.818;-3.732;2023-03-14T01:08:50;168.27;;;114.25;;
55136;SDS011;41032;47.818;-3.732;2023-03-14T01:11:24;176.50;;;115.43;;
55136;SDS011;41032;47.818;-3.732;2023-03-14T01:13:55;171.40;;;116.30;;
55136;SDS011;41032;47.818;-3.732;2023-03-14T01:16:24;174.43;;;116.38;;
55136;SDS011;41032;47.818;-3.732;2023-03-14T01:18:54;169.25;;;110.95;;
55136;SDS011;41032;47.818;-3.732;2023-03-14T01:21:24;167.02;;;113.97;;
55136;SDS011;41032;47.818;-3.732;2023-03-14T01:23:54;160.18;;;108.00;;
55136;SDS011;41032;47.818;-3.732;2023-03-14T01:26:26;164.57;;;111.82;;
55136;SDS011;41032;47.818;-3.732;2023-03-14T01:28:56;164.20;;;111.55;;
55136;SDS011;41032;47.818;-3.732;2023-03-14T01:31:24;165.68;;;109.60;;
55136;SDS011;41032;47.818;-3.732;2023-03-14T01:33:53;173.18;;;116.57;;
55136;SDS011;41032;47.818;-3.732;2023-03-14T01:36:23;162.95;;;111.63;;
55136;SDS011;41032;47.818;-3.732;2023-03-14T01:38:51;166.15;;;111.90;;
55136;SDS011;41032;47.818;-3.732;2023-03-14T01:41:21;157.32;;;111.13;;
55136;SDS011;41032;47.818;-3.732;2023-03-14T01:43:51;173.07;;;118.60;;
55136;SDS011;41032;47.818;-3.732;2023-03-14T01:46:22;172.77;;;117.10;;
55136;SDS011;41032;47.818;-3.732;2023-03-14T01:48:54;162.50;;;109.45;;
55136;SDS011;41032;47.818;-3.732;2023-03-14T01:54:02;167.57;;;109.40;;
55136;SDS011;41032;47.818;-3.732;2023-03-14T01:56:53;174.75;;;118.70;;
55136;SDS011;41032;47.818;-3.732;2023-03-14T01:59:25;178.18;;;117.35;;
55136;SDS011;41032;47.818;-3.732;2023-03-14T02:01:54;170.35;;;117.82;;
55136;SDS011;41032;47.818;-3.732;2023-03-14T02:04:24;166.18;;;118.38;;
55136;SDS011;41032;47.818;-3.732;2023-03-14T02:06:59;175.25;;;115.68;;
55136;SDS011;41032;47.818;-3.732;2023-03-14T02:09:32;173.32;;;117.13;;
55136;SDS011;41032;47.818;-3.732;2023-03-14T02:12:00;163.02;;;112.05;;
55136;SDS011;41032;47.818;-3.732;2023-03-14T02:14:33;171.02;;;116.05;;
55136;SDS011;41032;47.818;-3.732;2023-03-14T02:17:04;166.27;;;114.05;;
55136;SDS011;41032;47.818;-3.732;2023-03-14T02:19:43;168.88;;;115.90;;
55136;SDS011;41032;47.818;-3.732;2023-03-14T02:22:16;185.02;;;125.00;;
55136;SDS011;41032;47.818;-3.732;2023-03-14T02:27:18;182.15;;;123.57;;
55136;SDS011;41032;47.818;-3.732;2023-03-14T02:32:19;177.65;;;120.25;;
55136;SDS011;41032;47.818;-3.732;2023-03-14T02:34:50;181.40;;;121.57;;
55136;SDS011;41032;47.818;-3.732;2023-03-14T02:37:21;178.93;;;123.68;;
55136;SDS011;41032;47.818;-3.732;2023-03-14T02:39:53;183.15;;;121.50;;
55136;SDS011;41032;47.818;-3.732;2023-03-14T02:42:22;191.52;;;125.22;;
55136;SDS011;41032;47.818;-3.732;2023-03-14T02:44:53;177.50;;;122.53;;
55136;SDS011;41032;47.818;-3.732;2023-03-14T02:47:27;178.38;;;122.03;;
55136;SDS011;41032;47.818;-3.732;2023-03-14T02:49:59;169.05;;;115.05;;
55136;SDS011;41032;47.818;-3.732;2023-03-14T02:52:32;167.18;;;115.90;;
55136;SDS011;41032;47.818;-3.732;2023-03-14T02:55:01;183.30;;;122.60;;
55136;SDS011;41032;47.818;-3.732;2023-03-14T02:57:30;167.63;;;116.35;;
55136;SDS011;41032;47.818;-3.732;2023-03-14T03:00:00;184.40;;;119.63;;
55136;SDS011;41032;47.818;-3.732;2023-03-14T03:02:31;178.70;;;121.55;;
55136;SDS011;41032;47.818;-3.732;2023-03-14T03:05:00;174.50;;;119.43;;
55136;SDS011;41032;47.818;-3.732;2023-03-14T03:07:29;178.88;;;121.40;;
55136;SDS011;41032;47.818;-3.732;2023-03-14T03:09:58;183.05;;;126.35;;
55136;SDS011;41032;47.818;-3.732;2023-03-14T03:12:26;178.02;;;122.65;;
55136;SDS011;41032;47.818;-3.732;2023-03-14T03:14:54;180.50;;;125.75;;
55136;SDS011;41032;47.818;-3.732;2023-03-14T03:17:22;178.50;;;123.05;;
55136;SDS011;41032;47.818;-3.732;2023-03-14T03:19:51;183.55;;;125.32;;
55136;SDS011;41032;47.818;-3.732;2023-03-14T03:22:19;177.38;;;123.40;;
55136;SDS011;41032;47.818;-3.732;2023-03-14T03:24:48;178.02;;;126.22;;
55136;SDS011;41032;47.818;-3.732;2023-03-14T03:27:18;189.93;;;128.02;;
55136;SDS011;41032;47.818;-3.732;2023-03-14T03:29:46;193.88;;;130.85;;
55136;SDS011;41032;47.818;-3.732;2023-03-14T03:32:14;182.57;;;122.97;;
55136;SDS011;41032;47.818;-3.732;2023-03-14T03:34:43;179.65;;;126.07;;
55136;SDS011;41032;47.818;-3.732;2023-03-14T03:37:12;186.07;;;127.30;;
55136;SDS011;41032;47.818;-3.732;2023-03-14T03:39:41;184.35;;;123.93;;
55136;SDS011;41032;47.818;-3.732;2023-03-14T03:42:10;183.35;;;125.93;;
55136;SDS011;41032;47.818;-3.732;2023-03-14T03:44:38;171.15;;;121.95;;
55136;SDS011;41032;47.818;-3.732;2023-03-14T03:47:08;184.88;;;126.32;;
55136;SDS011;41032;47.818;-3.732;2023-03-14T03:49:36;189.02;;;130.57;;
55136;SDS011;41032;47.818;-3.732;2023-03-14T03:52:05;183.75;;;127.43;;
55136;SDS011;41032;47.818;-3.732;2023-03-14T03:54:33;181.27;;;126.30;;
55136;SDS011;41032;47.818;-3.732;2023-03-14T03:57:03;191.98;;;133.45;;
55136;SDS011;41032;47.818;-3.732;2023-03-14T03:59:31;191.18;;;128.70;;
55136;SDS011;41032;47.818;-3.732;2023-03-14T04:01:59;186.90;;;129.23;;
55136;SDS011;41032;47.818;-3.732;2023-03-14T04:04:28;188.10;;;131.55;;
55136;SDS011;41032;47.818;-3.732;2023-03-14T04:06:57;202.18;;;139.00;;
55136;SDS011;41032;47.818;-3.732;2023-03-14T04:09:25;198.68;;;136.02;;
55136;SDS011;41032;47.818;-3.732;2023-03-14T04:11:52;204.88;;;137.65;;
55136;SDS011;41032;47.818;-3.732;2023-03-14T04:14:21;200.07;;;137.45;;
55136;SDS011;41032;47.818;-3.732;2023-03-14T04:16:51;202.90;;;139.25;;
55136;SDS011;41032;47.818;-3.732;2023-03-14T04:19:19;195.57;;;137.88;;
55136;SDS011;41032;47.818;-3.732;2023-03-14T04:21:49;195.30;;;139.05;;
55136;SDS011;41032;47.818;-3.732;2023-03-14T04:24:17;194.63;;;138.65;;
55136;SDS011;41032;47.818;-3.732;2023-03-14T04:26:45;198.77;;;134.75;;
55136;SDS011;41032;47.818;-3.732;2023-03-14T04:29:14;200.40;;;137.98;;
55136;SDS011;41032;47.818;-3.732;2023-03-14T04:31:43;197.15;;;136.95;;
55136;SDS011;41032;47.818;-3.732;2023-03-14T04:34:11;200.70;;;134.88;;
55136;SDS011;41032;47.818;-3.732;2023-03-14T04:36:41;199.07;;;140.23;;
55136;SDS011;41032;47.818;-3.732;2023-03-14T04:39:09;195.98;;;133.32;;
55136;SDS011;41032;47.818;-3.732;2023-03-14T04:41:38;186.25;;;132.38;;
55136;SDS011;41032;47.818;-3.732;2023-03-14T04:44:06;193.55;;;134.23;;
55136;SDS011;41032;47.818;-3.732;2023-03-14T04:46:36;195.10;;;134.30;;
55136;SDS011;41032;47.818;-3.732;2023-03-14T04:49:03;189.60;;;132.35;;
55136;SDS011;41032;47.818;-3.732;2023-03-14T04:51:31;198.50;;;134.88;;
55136;SDS011;41032;47.818;-3.732;2023-03-14T04:53:59;192.65;;;131.60;;
55136;SDS011;41032;47.818;-3.732;2023-03-14T04:56:28;184.50;;;128.23;;
55136;SDS011;41032;47.818;-3.732;2023-03-14T04:58:56;185.32;;;126.20;;
55136;SDS011;41032;47.818;-3.732;2023-03-14T05:01:24;183.77;;;123.15;;
55136;SDS011;41032;47.818;-3.732;2023-03-14T05:03:54;180.77;;;120.25;;
55136;SDS011;41032;47.818;-3.732;2023-03-14T05:06:22;172.98;;;120.10;;
55136;SDS011;41032;47.818;-3.732;2023-03-14T05:08:50;173.63;;;117.82;;
55136;SDS011;41032;47.818;-3.732;2023-03-14T05:11:20;159.93;;;111.68;;
55136;SDS011;41032;47.818;-3.732;2023-03-14T05:13:48;161.43;;;109.05;;
55136;SDS011;41032;47.818;-3.732;2023-03-14T05:16:16;158.60;;;107.78;;
55136;SDS011;41032;47.818;-3.732;2023-03-14T05:18:45;163.80;;;106.80;;
55136;SDS011;41032;47.818;-3.732;2023-03-14T05:21:14;149.32;;;105.93;;
55136;SDS011;41032;47.818;-3.732;2023-03-14T05:23:42;150.05;;;101.38;;
55136;SDS011;41032;47.818;-3.732;2023-03-14T05:26:12;147.70;;;101.25;;
55136;SDS011;41032;47.818;-3.732;2023-03-14T05:28:42;144.07;;;97.75;;
55136;SDS011;41032;47.818;-3.732;2023-03-14T05:31:11;140.85;;;96.78;;
55136;SDS011;41032;47.818;-3.732;2023-03-14T05:33:39;138.63;;;96.32;;
55136;SDS011;41032;47.818;-3.732;2023-03-14T05:36:08;134.68;;;93.32;;
55136;SDS011;41032;47.818;-3.732;2023-03-14T05:38:37;135.73;;;93.35;;
55136;SDS011;41032;47.818;-3.732;2023-03-14T05:41:07;131.60;;;92.20;;
55136;SDS011;41032;47.818;-3.732;2023-03-14T05:43:35;140.75;;;90.93;;
55136;SDS011;41032;47.818;-3.732;2023-03-14T05:46:03;129.10;;;87.82;;
55136;SDS011;41032;47.818;-3.732;2023-03-14T05:48:32;123.78;;;86.80;;
55136;SDS011;41032;47.818;-3.732;2023-03-14T05:51:01;130.98;;;88.85;;
55136;SDS011;41032;47.818;-3.732;2023-03-14T05:53:29;126.88;;;87.13;;
55136;SDS011;41032;47.818;-3.732;2023-03-14T05:55:58;124.28;;;85.53;;
55136;SDS011;41032;47.818;-3.732;2023-03-14T05:58:26;125.68;;;83.97;;
55136;SDS011;41032;47.818;-3.732;2023-03-14T06:00:54;112.85;;;77.40;;
55136;SDS011;41032;47.818;-3.732;2023-03-14T06:03:22;106.70;;;74.53;;
55136;SDS011;41032;47.818;-3.732;2023-03-14T06:05:50;105.97;;;71.30;;
55136;SDS011;41032;47.818;-3.732;2023-03-14T06:08:19;98.38;;;65.40;;
55136;SDS011;41032;47.818;-3.732;2023-03-14T06:10:47;92.50;;;64.43;;
55136;SDS011;41032;47.818;-3.732;2023-03-14T06:13:15;94.28;;;64.97;;
55136;SDS011;41032;47.818;-3.732;2023-03-14T06:15:44;97.63;;;64.47;;
55136;SDS011;41032;47.818;-3.732;2023-03-14T06:18:12;91.05;;;59.55;;
55136;SDS011;41032;47.818;-3.732;2023-03-14T06:20:41;93.63;;;59.70;;
55136;SDS011;41032;47.818;-3.732;2023-03-14T06:23:09;85.03;;;58.70;;
55136;SDS011;41032;47.818;-3.732;2023-03-14T06:25:38;81.88;;;55.85;;
55136;SDS011;41032;47.818;-3.732;2023-03-14T06:28:06;76.43;;;52.42;;
55136;SDS011;41032;47.818;-3.732;2023-03-14T06:30:34;75.65;;;52.15;;
55136;SDS011;41032;47.818;-3.732;2023-03-14T06:33:03;69.82;;;49.08;;
55136;SDS011;41032;47.818;-3.732;2023-03-14T06:35:31;68.93;;;47.00;;
55136;SDS011;41032;47.818;-3.732;2023-03-14T06:37:59;68.57;;;47.22;;
55136;SDS011;41032;47.818;-3.732;2023-03-14T06:40:28;67.25;;;46.85;;
55136;SDS011;41032;47.818;-3.732;2023-03-14T06:42:56;66.53;;;44.95;;
55136;SDS011;41032;47.818;-3.732;2023-03-14T06:45:25;67.20;;;40.78;;
55136;SDS011;41032;47.818;-3.732;2023-03-14T06:47:53;57.45;;;38.83;;
55136;SDS011;41032;47.818;-3.732;2023-03-14T06:50:22;57.83;;;38.10;;
55136;SDS011;41032;47.818;-3.732;2023-03-14T06:52:50;61.70;;;37.75;;
55136;SDS011;41032;47.818;-3.732;2023-03-14T06:55:19;55.33;;;36.03;;
55136;SDS011;41032;47.818;-3.732;2023-03-14T06:57:47;54.05;;;36.65;;
55136;SDS011;41032;47.818;-3.732;2023-03-14T07:00:15;49.05;;;33.70;;
55136;SDS011;41032;47.818;-3.732;2023-03-14T07:02:44;51.65;;;34.55;;
55136;SDS011;41032;47.818;-3.732;2023-03-14T07:05:13;52.90;;;35.03;;
55136;SDS011;41032;47.818;-3.732;2023-03-14T07:07:41;53.60;;;33.35;;
55136;SDS011;41032;47.818;-3.732;2023-03-14T07:10:10;46.42;;;31.48;;
55136;SDS011;41032;47.818;-3.732;2023-03-14T07:12:38;48.53;;;30.02;;
55136;SDS011;41032;47.818;-3.732;2023-03-14T07:15:07;45.05;;;29.20;;
55136;SDS011;41032;47.818;-3.732;2023-03-14T07:17:35;44.72;;;29.90;;
55136;SDS011;41032;47.818;-3.732;2023-03-14T07:20:04;42.30;;;28.63;;
55136;SDS011;41032;47.818;-3.732;2023-03-14T07:22:33;45.95;;;27.88;;
55136;SDS011;41032;47.818;-3.732;2023-03-14T07:25:02;41.92;;;26.50;;
55136;SDS011;41032;47.818;-3.732;2023-03-14T07:27:31;43.55;;;26.55;;
55136;SDS011;41032;47.818;-3.732;2023-03-14T07:30:00;39.10;;;24.95;;
55136;SDS011;41032;47.818;-3.732;2023-03-14T07:32:30;41.67;;;26.25;;
55136;SDS011;41032;47.818;-3.732;2023-03-14T07:34:57;35.45;;;25.38;;
55136;SDS011;41032;47.818;-3.732;2023-03-14T07:37:27;39.97;;;25.52;;
55136;SDS011;41032;47.818;-3.732;2023-03-14T07:39:56;54.30;;;37.38;;
55136;SDS011;41032;47.818;-3.732;2023-03-14T07:42:23;61.60;;;43.35;;
55136;SDS011;41032;47.818;-3.732;2023-03-14T07:44:51;73.55;;;49.75;;
55136;SDS011;41032;47.818;-3.732;2023-03-14T07:47:20;76.50;;;50.88;;
55136;SDS011;41032;47.818;-3.732;2023-03-14T07:49:48;76.95;;;49.90;;
55136;SDS011;41032;47.818;-3.732;2023-03-14T07:52:17;69.95;;;49.90;;
55136;SDS011;41032;47.818;-3.732;2023-03-14T07:54:45;70.15;;;48.63;;
55136;SDS011;41032;47.818;-3.732;2023-03-14T07:57:14;71.72;;;46.50;;
55136;SDS011;41032;47.818;-3.732;2023-03-14T07:59:43;71.25;;;45.95;;
55136;SDS011;41032;47.818;-3.732;2023-03-14T08:02:11;63.45;;;44.22;;
55136;SDS011;41032;47.818;-3.732;2023-03-14T08:04:40;64.15;;;43.33;;
55136;SDS011;41032;47.818;-3.732;2023-03-14T08:07:08;54.90;;;39.58;;
55136;SDS011;41032;47.818;-3.732;2023-03-14T08:09:37;57.67;;;40.25;;
55136;SDS011;41032;47.818;-3.732;2023-03-14T08:12:06;54.25;;;39.05;;
55136;SDS011;41032;47.818;-3.732;2023-03-14T08:14:34;65.03;;;46.03;;
55136;SDS011;41032;47.818;-3.732;2023-03-14T08:17:04;77.47;;;53.95;;
55136;SDS011;41032;47.818;-3.732;2023-03-14T08:19:34;76.13;;;54.67;;
55136;SDS011;41032;47.818;-3.732;2023-03-14T08:22:02;74.40;;;52.70;;
55136;SDS011;41032;47.818;-3.732;2023-03-14T08:24:31;75.30;;;51.70;;
55136;SDS011;41032;47.818;-3.732;2023-03-14T08:27:01;71.57;;;49.65;;
55136;SDS011;41032;47.818;-3.732;2023-03-14T08:29:28;66.32;;;47.42;;
55136;SDS011;41032;47.818;-3.732;2023-03-14T08:31:58;58.08;;;40.80;;
55136;SDS011;41032;47.818;-3.732;2023-03-14T08:34:26;60.85;;;41.10;;
55136;SDS011;41032;47.818;-3.732;2023-03-14T08:36:55;59.35;;;39.95;;
55136;SDS011;41032;47.818;-3.732;2023-03-14T08:39:23;54.92;;;36.28;;
55136;SDS011;41032;47.818;-3.732;2023-03-14T08:41:53;46.88;;;33.20;;
55136;SDS011;41032;47.818;-3.732;2023-03-14T08:44:21;47.20;;;31.77;;
55136;SDS011;41032;47.818;-3.732;2023-03-14T08:46:49;51.90;;;33.75;;
55136;SDS011;41032;47.818;-3.732;2023-03-14T08:49:18;55.42;;;35.95;;
55136;SDS011;41032;47.818;-3.732;2023-03-14T08:51:47;63.38;;;42.33;;
55136;SDS011;41032;47.818;-3.732;2023-03-14T08:54:15;79.50;;;52.03;;
55136;SDS011;41032;47.818;-3.732;2023-03-14T08:56:44;92.78;;;60.17;;
55136;SDS011;41032;47.818;-3.732;2023-03-14T08:59:13;107.93;;;69.32;;
55136;SDS011;41032;47.818;-3.732;2023-03-14T09:01:41;113.00;;;74.28;;
55136;SDS011;41032;47.818;-3.732;2023-03-14T09:04:14;119.60;;;80.32;;
55136;SDS011;41032;47.818;-3.732;2023-03-14T09:06:42;135.57;;;90.30;;
55136;SDS011;41032;47.818;-3.732;2023-03-14T09:09:11;148.90;;;95.80;;
55136;SDS011;41032;47.818;-3.732;2023-03-14T09:11:40;146.85;;;96.38;;
55136;SDS011;41032;47.818;-3.732;2023-03-14T09:14:08;157.20;;;102.78;;
55136;SDS011;41032;47.818;-3.732;2023-03-14T09:16:37;156.80;;;105.10;;
55136;SDS011;41032;47.818;-3.732;2023-03-14T09:19:05;171.02;;;112.97;;
55136;SDS011;41032;47.818;-3.732;2023-03-14T09:21:34;184.57;;;118.43;;
55136;SDS011;41032;47.818;-3.732;2023-03-14T09:24:03;183.43;;;123.45;;
55136;SDS011;41032;47.818;-3.732;2023-03-14T09:26:32;192.82;;;127.13;;
55136;SDS011;41032;47.818;-3.732;2023-03-14T09:29:00;194.95;;;128.13;;
55136;SDS011;41032;47.818;-3.732;2023-03-14T09:31:29;183.40;;;125.93;;
55136;SDS011;41032;47.818;-3.732;2023-03-14T09:33:58;197.82;;;129.48;;
55136;SDS011;41032;47.818;-3.732;2023-03-14T09:36:26;192.18;;;127.75;;
55136;SDS011;41032;47.818;-3.732;2023-03-14T09:38:55;205.32;;;132.77;;
55136;SDS011;41032;47.818;-3.732;2023-03-14T09:41:25;198.00;;;132.80;;
55136;SDS011;41032;47.818;-3.732;2023-03-14T09:43:58;198.30;;;130.48;;
55136;SDS011;41032;47.818;-3.732;2023-03-14T09:46:33;201.30;;;133.43;;
55136;SDS011;41032;47.818;-3.732;2023-03-14T09:49:08;199.50;;;133.48;;
55136;SDS011;41032;47.818;-3.732;2023-03-14T09:51:39;195.20;;;133.38;;
55136;SDS011;41032;47.818;-3.732;2023-03-14T09:54:16;203.52;;;138.90;;
55136;SDS011;41032;47.818;-3.732;2023-03-14T09:57:05;207.85;;;141.52;;
55136;SDS011;41032;47.818;-3.732;2023-03-14T09:59:36;217.05;;;143.95;;
55136;SDS011;41032;47.818;-3.732;2023-03-14T10:02:28;193.48;;;136.70;;
55136;SDS011;41032;47.818;-3.732;2023-03-14T10:04:56;193.45;;;135.43;;
55136;SDS011;41032;47.818;-3.732;2023-03-14T10:07:29;218.68;;;143.30;;
55136;SDS011;41032;47.818;-3.732;2023-03-14T10:09:59;206.27;;;143.52;;
55136;SDS011;41032;47.818;-3.732;2023-03-14T10:12:31;213.85;;;149.77;;
55136;SDS011;41032;47.818;-3.732;2023-03-14T10:15:06;229.55;;;156.70;;
55136;SDS011;41032;47.818;-3.732;2023-03-14T10:17:39;214.45;;;149.95;;
55136;SDS011;41032;47.818;-3.732;2023-03-14T10:20:25;220.60;;;151.18;;
55136;SDS011;41032;47.818;-3.732;2023-03-14T10:25:42;225.93;;;155.95;;
55136;SDS011;41032;47.818;-3.732;2023-03-14T10:28:22;232.70;;;154.70;;
55136;SDS011;41032;47.818;-3.732;2023-03-14T10:30:54;215.52;;;147.60;;
55136;SDS011;41032;47.818;-3.732;2023-03-14T10:33:23;223.98;;;150.00;;
55136;SDS011;41032;47.818;-3.732;2023-03-14T10:35:54;224.57;;;148.77;;
55136;SDS011;41032;47.818;-3.732;2023-03-14T10:38:26;226.48;;;150.95;;
55136;SDS011;41032;47.818;-3.732;2023-03-14T10:40:56;216.10;;;152.02;;
55136;SDS011;41032;47.818;-3.732;2023-03-14T10:43:34;223.80;;;154.25;;
55136;SDS011;41032;47.818;-3.732;2023-03-14T10:46:06;244.10;;;163.07;;
55136;SDS011;41032;47.818;-3.732;2023-03-14T10:48:38;225.80;;;149.07;;
55136;SDS011;41032;47.818;-3.732;2023-03-14T10:51:09;223.45;;;154.73;;
55136;SDS011;41032;47.818;-3.732;2023-03-14T10:56:13;231.50;;;156.77;;
55136;SDS011;41032;47.818;-3.732;2023-03-14T10:58:42;230.90;;;158.27;;
55136;SDS011;41032;47.818;-3.732;2023-03-14T11:01:17;237.73;;;159.30;;
55136;SDS011;41032;47.818;-3.732;2023-03-14T11:10:43;249.45;;;163.88;;
55136;SDS011;41032;47.818;-3.732;2023-03-14T11:26:59;222.73;;;149.50;;
55136;SDS011;41032;47.818;-3.732;2023-03-14T11:32:56;233.02;;;153.52;;
55136;SDS011;41032;47.818;-3.732;2023-03-14T11:35:30;230.27;;;156.52;;
55136;SDS011;41032;47.818;-3.732;2023-03-14T11:38:11;219.75;;;151.73;;
55136;SDS011;41032;47.818;-3.732;2023-03-14T11:40:48;222.73;;;150.40;;
55136;SDS011;41032;47.818;-3.732;2023-03-14T11:45:58;222.82;;;153.00;;
55136;SDS011;41032;47.818;-3.732;2023-03-14T11:51:00;237.75;;;159.63;;
55136;SDS011;41032;47.818;-3.732;2023-03-14T11:56:11;222.80;;;154.98;;
55136;SDS011;41032;47.818;-3.732;2023-03-14T11:58:47;228.68;;;159.55;;
55136;SDS011;41032;47.818;-3.732;2023-03-14T12:01:18;236.48;;;162.45;;
55136;SDS011;41032;47.818;-3.732;2023-03-14T12:03:54;236.40;;;162.70;;
55136;SDS011;41032;47.818;-3.732;2023-03-14T12:06:29;227.45;;;158.40;;
55136;SDS011;41032;47.818;-3.732;2023-03-14T12:09:02;236.43;;;162.93;;
55136;SDS011;41032;47.818;-3.732;2023-03-14T12:14:20;251.25;;;167.77;;
55136;SDS011;41032;47.818;-3.732;2023-03-14T12:17:27;242.80;;;167.13;;
55136;SDS011;41032;47.818;-3.732;2023-03-14T12:22:48;217.82;;;152.57;;
55136;SDS011;41032;47.818;-3.732;2023-03-14T12:25:18;235.27;;;163.70;;
55136;SDS011;41032;47.818;-3.732;2023-03-14T12:27:47;246.85;;;167.00;;
55136;SDS011;41032;47.818;-3.732;2023-03-14T12:30:28;231.82;;;159.52;;
55136;SDS011;41032;47.818;-3.732;2023-03-14T12:33:10;249.68;;;168.55;;
55136;SDS011;41032;47.818;-3.732;2023-03-14T12:35:47;248.55;;;170.27;;
55136;SDS011;41032;47.818;-3.732;2023-03-14T12:41:26;248.75;;;174.75;;
55136;SDS011;41032;47.818;-3.732;2023-03-14T12:43:53;248.02;;;172.98;;
55136;SDS011;41032;47.818;-3.732;2023-03-14T12:46:21;259.08;;;179.60;;
55136;SDS011;41032;47.818;-3.732;2023-03-14T12:51:40;252.07;;;182.20;;
55136;SDS011;41032;47.818;-3.732;2023-03-14T12:54:13;264.25;;;185.80;;
55136;SDS011;41032;47.818;-3.732;2023-03-14T13:02:20;253.30;;;187.43;;
55136;SDS011;41032;47.818;-3.732;2023-03-14T13:05:11;234.43;;;165.65;;
55136;SDS011;41032;47.818;-3.732;2023-03-14T13:12:41;261.95;;;179.40;;
55136;SDS011;41032;47.818;-3.732;2023-03-14T13:17:46;252.40;;;176.18;;
55136;SDS011;41032;47.818;-3.732;2023-03-14T13:20:27;259.58;;;178.52;;
55136;SDS011;41032;47.818;-3.732;2023-03-14T13:22:56;257.48;;;182.38;;
55136;SDS011;41032;47.818;-3.732;2023-03-14T13:25:28;262.27;;;186.73;;
55136;SDS011;41032;47.818;-3.732;2023-03-14T13:28:00;259.45;;;178.10;;
55136;SDS011;41032;47.818;-3.732;2023-03-14T13:30:35;250.35;;;174.82;;
55136;SDS011;41032;47.818;-3.732;2023-03-14T13:33:06;252.40;;;184.02;;
55136;SDS011;41032;47.818;-3.732;2023-03-14T13:35:39;260.10;;;178.07;;
55136;SDS011;41032;47.818;-3.732;2023-03-14T13:38:20;246.77;;;176.07;;
55136;SDS011;41032;47.818;-3.732;2023-03-14T13:40:51;264.17;;;189.00;;
55136;SDS011;41032;47.818;-3.732;2023-03-14T13:43:35;242.80;;;173.85;;
55136;SDS011;41032;47.818;-3.732;2023-03-14T13:46:12;236.60;;;165.27;;
55136;SDS011;41032;47.818;-3.732;2023-03-14T13:48:44;256.50;;;178.75;;
55136;SDS011;41032;47.818;-3.732;2023-03-14T13:51:15;259.48;;;179.23;;
55136;SDS011;41032;47.818;-3.732;2023-03-14T13:53:45;247.55;;;174.85;;
55136;SDS011;41032;47.818;-3.732;2023-03-14T13:56:17;258.02;;;180.60;;
55136;SDS011;41032;47.818;-3.732;2023-03-14T13:58:47;255.15;;;182.40;;
55136;SDS011;41032;47.818;-3.732;2023-03-14T14:01:35;261.65;;;181.80;;
55136;SDS011;41032;47.818;-3.732;2023-03-14T14:04:14;264.85;;;190.88;;
55136;SDS011;41032;47.818;-3.732;2023-03-14T14:06:45;264.88;;;184.50;;
55136;SDS011;41032;47.818;-3.732;2023-03-14T14:09:15;250.23;;;178.15;;
55136;SDS011;41032;47.818;-3.732;2023-03-14T14:11:48;293.67;;;203.27;;
55136;SDS011;41032;47.818;-3.732;2023-03-14T14:14:19;266.67;;;191.40;;
55136;SDS011;41032;47.818;-3.732;2023-03-14T14:16:49;250.40;;;173.60;;
55136;SDS011;41032;47.818;-3.732;2023-03-14T14:19:18;279.88;;;191.43;;
55136;SDS011;41032;47.818;-3.732;2023-03-14T14:21:47;285.30;;;205.70;;
55136;SDS011;41032;47.818;-3.732;2023-03-14T14:24:17;284.40;;;200.05;;
55136;SDS011;41032;47.818;-3.732;2023-03-14T14:26:59;279.65;;;200.60;;
55136;SDS011;41032;47.818;-3.732;2023-03-14T14:29:29;260.13;;;184.45;;
55136;SDS011;41032;47.818;-3.732;2023-03-14T14:32:19;257.52;;;187.05;;
55136;SDS011;41032;47.818;-3.732;2023-03-14T14:34:45;283.15;;;198.73;;
55136;SDS011;41032;47.818;-3.732;2023-03-14T14:37:27;298.42;;;211.32;;
55136;SDS011;41032;47.818;-3.732;2023-03-14T14:39:58;306.58;;;219.02;;
55136;SDS011;41032;47.818;-3.732;2023-03-14T14:42:33;316.23;;;228.32;;
55136;SDS011;41032;47.818;-3.732;2023-03-14T14:45:02;312.75;;;226.10;;
55136;SDS011;41032;47.818;-3.732;2023-03-14T14:47:30;313.42;;;232.65;;
55136;SDS011;41032;47.818;-3.732;2023-03-14T14:49:59;320.80;;;235.27;;
55136;SDS011;41032;47.818;-3.732;2023-03-14T14:52:41;331.80;;;238.48;;
55136;SDS011;41032;47.818;-3.732;2023-03-14T14:55:12;331.02;;;231.40;;
55136;SDS011;41032;47.818;-3.732;2023-03-14T14:57:54;325.23;;;232.75;;
55136;SDS011;41032;47.818;-3.732;2023-03-14T15:00:23;331.88;;;237.15;;
55136;SDS011;41032;47.818;-3.732;2023-03-14T15:02:53;321.08;;;233.75;;
55136;SDS011;41032;47.818;-3.732;2023-03-14T15:05:24;333.13;;;245.60;;
55136;SDS011;41032;47.818;-3.732;2023-03-14T15:07:53;348.40;;;254.52;;
55136;SDS011;41032;47.818;-3.732;2023-03-14T15:10:22;341.65;;;246.25;;
55136;SDS011;41032;47.818;-3.732;2023-03-14T15:12:51;346.35;;;248.85;;
55136;SDS011;41032;47.818;-3.732;2023-03-14T15:15:19;350.00;;;251.60;;
55136;SDS011;41032;47.818;-3.732;2023-03-14T15:17:46;351.90;;;259.48;;
55136;SDS011;41032;47.818;-3.732;2023-03-14T15:20:15;354.92;;;258.20;;